Etusivu
METAR-TAF:

METAR-TAF

Lentoasemat :

Clintonville, Wisconsin, Yhdysvallat

Leveyspiiri: 44-36-50N, Pituuspiiri: 088-43-53W, korkeus merenpinnasta: 251 m

Tämänhetkinen sää

Tämä raportti tehtiin 14 minuuttia sitten, kello 11.15 UTC
tyyntä
Lämpötila -1°C
Kosteus 80%
Ilmanpaine 1014 hPa
Näkyvyys: 16.1 km
selkeää

METAR: KCLI 201115Z AUTO 00000KT 10SM CLR M01/M04 A2993 RMK AO2 T10141041

Aika: 06:29 (11:29 UTC)


TAF: puuttuu

Säähavainnot ja -ennusteet yli 4000 lentoasemalta (METAR- ja TAF-raportit).

Käytössä olevat sääasemat on merkitty karttaan keltaisilla ja punaisilla pisteillä.

Aseta hiiri pisteen päälle nähdäksesi sääaseman nimen.

Klikkaa sitten nähdäksesi säähavainnot ja -ennusteet.

Kartan vaihtaminen: klikkaa mustalla rastilla varustettuja vihreitä pisteitä, niin voit zoomata sisään; viivalla varustettua vihreää pistettä, niin voit zoomata ulos tai vihreitä nuolia, niin pääset viereisille kartoille.


METAR-TAF: